Mitsukawa Maru — JD2495 — position and weather

sailwx.info

Track history (hours):
 
Tides and Currents Weather Stations Pressure Air Temp Water Temp Dewpoint Dewpoint Depression Visibility Wind Speed Wind Dir Waves Ship Positions

Mitsukawa Maru

Last reported at 2018-Apr-25 16:43 UTC. Time now 2018-Apr-26 03:52 UTC.
Position N 33°10' E 131°57'.

Length 105 m; draft 4.3 m.

Type: Cargo ship. MMSI: 431000326.

Date/timePositionNaut miles runAvg speedWind from/ knotsBaromVisibWave heightAir tempDewpointWater temp
2018-Apr-25 16:43N 33°10' E 131°57'413.7
2018-Apr-25 16:28N 33°13' E 131°58'613.2
2018-Apr-25 16:00N 33°19' E 131°59'712.6
2018-Apr-25 15:27N 33°25' E 132°03'1314.1
2018-Apr-25 14:30N 33°35' E 132°14'814.7
2018-Apr-25 13:58N 33°40' E 132°21'714.6
2018-Apr-25 13:30N 33°45' E 132°27'814.6
2018-Apr-25 12:58N 33°51' E 132°33'714.5
2018-Apr-25 12:30N 33°55' E 132°39'714.0
2018-Apr-25 12:01N 34°01' E 132°44'1413.2
2018-Apr-25 10:58N 34°10' E 132°57'9 0.4
2018-Apr-24 13:36N 34°04' E 132°49'411.0
2018-Apr-24 13:14N 34°01' E 132°46'210.8
2018-Apr-24 13:00N 33°59' E 132°44'510.6
2018-Apr-24 12:30N 33°55' E 132°39'611.3
2018-Apr-24 12:00N 33°51' E 132°35'612.0
2018-Apr-24 11:28N 33°46' E 132°29'612.2
2018-Apr-24 11:00N 33°42' E 132°25'712.3
2018-Apr-24 10:25N 33°37' E 132°18'1512.4
2018-Apr-24 09:13N 33°27' E 132°06'312.4
2018-Apr-24 09:00N 33°25' E 132°04'611.3
2018-Apr-24 08:30N 33°20' E 131°60'611.1
2018-Apr-24 08:00N 33°15' E 131°59'7 1.2
2018-Apr-24 01:42N 33°08' E 132°01'311.6
2018-Apr-24 01:25N 33°06' E 132°05'713.0
2018-Apr-24 00:53N 33°01' E 132°10'31211.8
2018-Apr-22 22:20N 34°31' E 138°10'513.7
2018-Apr-22 21:58N 34°32' E 138°16'913.3
2018-Apr-22 21:19N 34°32' E 138°26'513.4
2018-Apr-22 20:57N 34°32' E 138°32'713.2
2018-Apr-22 20:25N 34°31' E 138°41'612.6
2018-Apr-22 19:54N 34°31' E 138°49'511.4
2018-Apr-22 19:30N 34°31' E 138°54'510.4
2018-Apr-22 19:00N 34°34' E 139°00'611.3
2018-Apr-22 18:30N 34°38' E 139°05'810.9
2018-Apr-22 17:47N 34°44' E 139°11'310.8
2018-Apr-22 17:30N 34°46' E 139°13'611.4
2018-Apr-22 17:00N 34°50' E 139°18'611.1
2018-Apr-22 16:29N 34°54' E 139°24'511.0
2018-Apr-22 16:00N 34°57' E 139°28'611.7
2018-Apr-22 15:30N 35°01' E 139°34'612.4
2018-Apr-22 15:00N 35°05' E 139°39'612.6
2018-Apr-22 14:30N 35°10' E 139°44'611.8
2018-Apr-22 14:00N 35°16' E 139°46'612.2
2018-Apr-22 13:30N 35°21' E 139°42'612.0
2018-Apr-22 13:00N 35°26' E 139°46'612.6
2018-Apr-22 12:31N 35°30' E 139°52'612.8
2018-Apr-22 12:01N 35°33' E 139°59'612.2
2018-Apr-22 11:31N 35°35' E 140°06'1 2.4
2018-Apr-22 11:00N 35°34' E 140°07'0 0.0
2018-Apr-22 10:30N 35°34' E 140°07'0 0.0
2018-Apr-22 10:00N 35°34' E 140°07'0 0.0
2018-Apr-22 09:30N 35°34' E 140°07'0 0.0
2018-Apr-22 09:00N 35°34' E 140°07'0 0.0
2018-Apr-22 08:30N 35°34' E 140°07'0 0.0
2018-Apr-22 08:00N 35°34' E 140°07'0 0.0
2018-Apr-22 07:30N 35°34' E 140°07'0 0.0
2018-Apr-22 07:00N 35°34' E 140°07'0 0.0
2018-Apr-22 06:30N 35°34' E 140°07'0 0.0
2018-Apr-22 06:00N 35°34' E 140°07'0 0.0
2018-Apr-22 05:30N 35°34' E 140°07'0 0.0
2018-Apr-22 05:00N 35°34' E 140°07'0 0.0
2018-Apr-22 04:30N 35°34' E 140°07'0 0.0
2018-Apr-22 04:00N 35°34' E 140°07'0 0.0
2018-Apr-22 03:30N 35°34' E 140°07'0 0.0
2018-Apr-22 03:00N 35°34' E 140°07'0 0.0
2018-Apr-22 02:30N 35°34' E 140°07'0 0.0
2018-Apr-22 02:00N 35°34' E 140°07'0 0.0
2018-Apr-22 01:30N 35°34' E 140°07'0 0.0
2018-Apr-22 01:00N 35°34' E 140°07'0 0.0
2018-Apr-22 00:30N 35°34' E 140°07'0 0.0
2018-Apr-22 00:00N 35°34' E 140°07'0 0.0
2018-Apr-21 23:30N 35°34' E 140°07'0 0.0
2018-Apr-21 22:59N 35°34' E 140°07'1 1.2
2018-Apr-21 22:30N 35°35' E 140°07'3 6.0
2018-Apr-21 22:00N 35°35' E 140°03'2 3.7
2018-Apr-21 21:28N 35°35' E 140°00'0 0.0
2018-Apr-21 20:58N 35°35' E 140°00'0 0.0
2018-Apr-21 20:28N 35°35' E 140°00'0 0.0
2018-Apr-21 19:58N 35°35' E 140°00'0 0.2
2018-Apr-21 19:28N 35°35' E 140°00'2 4.1
2018-Apr-21 19:01N 35°34' E 139°59'611.7
2018-Apr-21 18:31N 35°30' E 139°53'612.1
2018-Apr-21 18:00N 35°26' E 139°48'510.6
2018-Apr-21 17:30N 35°21' E 139°45'611.1
2018-Apr-21 17:00N 35°16' E 139°47'612.1
2018-Apr-21 16:30N 35°09' E 139°46'612.1
2018-Apr-21 16:00N 35°04' E 139°45'611.3
2018-Apr-21 15:30N 34°60' E 139°40'612.9
2018-Apr-21 15:00N 34°57' E 139°33'713.8
2018-Apr-21 14:30N 34°53' E 139°26'713.8
2018-Apr-21 14:00N 34°49' E 139°19'713.8
2018-Apr-21 13:30N 34°44' E 139°13'713.8
2018-Apr-21 13:00N 34°39' E 139°07'713.3
2018-Apr-21 12:30N 34°35' E 139°01'612.5
2018-Apr-21 12:00N 34°32' E 138°54'913.2
2018-Apr-21 11:21N 34°32' E 138°44'513.0
2018-Apr-21 10:59N 34°31' E 138°38'712.9
2018-Apr-21 10:28N 34°31' E 138°30'612.7
2018-Apr-21 09:59N 34°31' E 138°23'612.5
2018-Apr-21 09:30N 34°31' E 138°15'3612.2
2018-Apr-21 06:34N 34°21' E 137°33'611.9
2018-Apr-21 06:05N 34°19' E 137°27'111.7
2018-Apr-21 05:58N 34°18' E 137°26'13110.9
2018-Apr-20 18:00N 33°24' E 135°02'612.1
2018-Apr-20 17:30N 33°23' E 134°55'612.2
2018-Apr-20 16:59N 33°21' E 134°48'24 0.8
2018-Apr-19 11:23N 33°44' E 134°45'912.5
2018-Apr-19 10:40N 33°51' E 134°52'212.3
2018-Apr-19 10:30N 33°53' E 134°53'712.3
2018-Apr-19 09:57N 33°60' E 134°54'512.5
2018-Apr-19 09:30N 34°05' E 134°56'714.0
2018-Apr-19 09:01N 34°12' E 134°58'714.6
2018-Apr-19 08:30N 34°19' E 134°59'612.9
2018-Apr-19 08:00N 34°25' E 135°01'612.9
2018-Apr-19 07:30N 34°32' E 135°02'611.9
2018-Apr-19 07:01N 34°37' E 134°59'816.7
2018-Apr-19 06:31N 34°33' E 134°50'714.5
2018-Apr-19 06:01N 34°30' E 134°42'714.1
2018-Apr-19 05:31N 34°28' E 134°34'713.8
2018-Apr-19 04:59N 34°25' E 134°26'613.4
2018-Apr-19 04:30N 34°24' E 134°18'713.6
2018-Apr-19 04:01N 34°25' E 134°10'713.1
2018-Apr-19 03:30N 34°26' E 134°02'64 4.0
2018-Apr-18 11:36N 34°05' E 132°48'313.0
2018-Apr-18 11:25N 34°03' E 132°47'513.7
2018-Apr-18 11:01N 33°58' E 132°44'712.9
2018-Apr-18 10:29N 33°54' E 132°37'612.7
2018-Apr-18 10:00N 33°49' E 132°32'612.2
2018-Apr-18 09:28N 33°45' E 132°27'612.2
2018-Apr-18 09:00N 33°41' E 132°22'612.0
2018-Apr-18 08:30N 33°36' E 132°17'611.7
2018-Apr-18 07:58N 33°32' E 132°12'611.6
2018-Apr-18 07:25N 33°28' E 132°07'511.0
2018-Apr-18 07:01N 33°24' E 132°03'7 9.7
2018-Apr-18 06:16N 33°18' E 131°59'711.3
2018-Apr-18 05:38N 33°11' E 131°58'2 0.3
2018-Apr-17 23:38N 33°09' E 131°56'213.2
2018-Apr-17 23:30N 33°11' E 131°57'612.4
2018-Apr-17 22:59N 33°17' E 131°60'511.2
2018-Apr-17 22:30N 33°22' E 132°01'912.0
2018-Apr-17 21:44N 33°29' E 132°09'513.1
2018-Apr-17 21:23N 33°32' E 132°13'513.5
2018-Apr-17 20:59N 33°36' E 132°17'713.8
2018-Apr-17 20:30N 33°41' E 132°23'814.2
2018-Apr-17 19:57N 33°47' E 132°29'614.6
2018-Apr-17 19:30N 33°52' E 132°34'815.2
2018-Apr-17 19:00N 33°57' E 132°41'1015.2
2018-Apr-17 18:21N 34°04' E 132°49'915.0
2018-Apr-17 17:46N 34°10' E 132°57'10 0.5
2018-Apr-16 22:32N 34°03' E 132°48'212.7
2018-Apr-16 22:21N 34°02' E 132°47'512.9
2018-Apr-16 22:00N 33°58' E 132°43'612.3
2018-Apr-16 21:28N 33°54' E 132°37'612.4
2018-Apr-16 21:00N 33°49' E 132°32'611.7
2018-Apr-16 20:28N 33°45' E 132°27'611.6
2018-Apr-16 19:56N 33°41' E 132°22'611.4
2018-Apr-16 19:26N 33°37' E 132°17'711.3
2018-Apr-16 18:51N 33°32' E 132°11'411.3
2018-Apr-16 18:28N 33°29' E 132°08'511.0
2018-Apr-16 18:00N 33°25' E 132°03'510.5
2018-Apr-16 17:30N 33°21' E 131°60'5 9.5
2018-Apr-16 16:58N 33°16' E 131°59'6 0.9
2018-Apr-16 10:45N 33°11' E 131°57'512.7
2018-Apr-16 10:23N 33°15' E 131°59'410.8
2018-Apr-16 10:00N 33°19' E 131°59'612.1
2018-Apr-16 09:29N 33°24' E 132°03'1012.2
2018-Apr-16 08:38N 33°32' E 132°11'512.9
2018-Apr-16 08:16N 33°35' E 132°15'513.1
2018-Apr-16 07:55N 33°39' E 132°19'613.6
2018-Apr-16 07:30N 33°43' E 132°24'814.4
2018-Apr-16 06:55N 33°49' E 132°31'614.7
2018-Apr-16 06:30N 33°53' E 132°36'815.7
2018-Apr-16 06:00N 33°58' E 132°43'1714.1
2018-Apr-16 04:49N 34°09' E 132°59'  
Track history (hours):
 
Tides and Currents Weather Stations Pressure Air Temp Water Temp Dewpoint Dewpoint Depression Visibility Wind Speed Wind Dir Waves Ship Positions

Mitsukawa Maru

Last reported at 2018-Apr-25 16:43 UTC. Time now 2018-Apr-26 03:52 UTC.
Position N 33°10' E 131°57'.

Length 105 m; draft 4.3 m.

Type: Cargo ship. MMSI: 431000326.

Date/timePositionNaut miles runAvg speedWind from/ knotsBaromVisibWave heightAir tempDewpointWater temp
2018-Apr-25 16:43N 33°10' E 131°57'413.7
2018-Apr-25 16:28N 33°13' E 131°58'613.2
2018-Apr-25 16:00N 33°19' E 131°59'712.6
2018-Apr-25 15:27N 33°25' E 132°03'1314.1
2018-Apr-25 14:30N 33°35' E 132°14'814.7
2018-Apr-25 13:58N 33°40' E 132°21'714.6
2018-Apr-25 13:30N 33°45' E 132°27'814.6
2018-Apr-25 12:58N 33°51' E 132°33'714.5
2018-Apr-25 12:30N 33°55' E 132°39'714.0
2018-Apr-25 12:01N 34°01' E 132°44'1413.2
2018-Apr-25 10:58N 34°10' E 132°57'9 0.4
2018-Apr-24 13:36N 34°04' E 132°49'411.0
2018-Apr-24 13:14N 34°01' E 132°46'210.8
2018-Apr-24 13:00N 33°59' E 132°44'510.6
2018-Apr-24 12:30N 33°55' E 132°39'611.3
2018-Apr-24 12:00N 33°51' E 132°35'612.0
2018-Apr-24 11:28N 33°46' E 132°29'612.2
2018-Apr-24 11:00N 33°42' E 132°25'712.3
2018-Apr-24 10:25N 33°37' E 132°18'1512.4
2018-Apr-24 09:13N 33°27' E 132°06'312.4
2018-Apr-24 09:00N 33°25' E 132°04'611.3
2018-Apr-24 08:30N 33°20' E 131°60'611.1
2018-Apr-24 08:00N 33°15' E 131°59'7 1.2
2018-Apr-24 01:42N 33°08' E 132°01'311.6
2018-Apr-24 01:25N 33°06' E 132°05'713.0
2018-Apr-24 00:53N 33°01' E 132°10'31211.8
2018-Apr-22 22:20N 34°31' E 138°10'513.7
2018-Apr-22 21:58N 34°32' E 138°16'913.3
2018-Apr-22 21:19N 34°32' E 138°26'513.4
2018-Apr-22 20:57N 34°32' E 138°32'713.2
2018-Apr-22 20:25N 34°31' E 138°41'612.6
2018-Apr-22 19:54N 34°31' E 138°49'511.4
2018-Apr-22 19:30N 34°31' E 138°54'510.4
2018-Apr-22 19:00N 34°34' E 139°00'611.3
2018-Apr-22 18:30N 34°38' E 139°05'810.9
2018-Apr-22 17:47N 34°44' E 139°11'310.8
2018-Apr-22 17:30N 34°46' E 139°13'611.4
2018-Apr-22 17:00N 34°50' E 139°18'611.1
2018-Apr-22 16:29N 34°54' E 139°24'511.0
2018-Apr-22 16:00N 34°57' E 139°28'611.7
2018-Apr-22 15:30N 35°01' E 139°34'612.4
2018-Apr-22 15:00N 35°05' E 139°39'612.6
2018-Apr-22 14:30N 35°10' E 139°44'611.8
2018-Apr-22 14:00N 35°16' E 139°46'612.2
2018-Apr-22 13:30N 35°21' E 139°42'612.0
2018-Apr-22 13:00N 35°26' E 139°46'612.6
2018-Apr-22 12:31N 35°30' E 139°52'612.8
2018-Apr-22 12:01N 35°33' E 139°59'612.2
2018-Apr-22 11:31N 35°35' E 140°06'1 2.4
2018-Apr-22 11:00N 35°34' E 140°07'0 0.0
2018-Apr-22 10:30N 35°34' E 140°07'0 0.0
2018-Apr-22 10:00N 35°34' E 140°07'0 0.0
2018-Apr-22 09:30N 35°34' E 140°07'0 0.0
2018-Apr-22 09:00N 35°34' E 140°07'0 0.0
2018-Apr-22 08:30N 35°34' E 140°07'0 0.0
2018-Apr-22 08:00N 35°34' E 140°07'0 0.0
2018-Apr-22 07:30N 35°34' E 140°07'0 0.0
2018-Apr-22 07:00N 35°34' E 140°07'0 0.0
2018-Apr-22 06:30N 35°34' E 140°07'0 0.0
2018-Apr-22 06:00N 35°34' E 140°07'0 0.0
2018-Apr-22 05:30N 35°34' E 140°07'0 0.0
2018-Apr-22 05:00N 35°34' E 140°07'0 0.0
2018-Apr-22 04:30N 35°34' E 140°07'0 0.0
2018-Apr-22 04:00N 35°34' E 140°07'0 0.0
2018-Apr-22 03:30N 35°34' E 140°07'0 0.0
2018-Apr-22 03:00N 35°34' E 140°07'0 0.0
2018-Apr-22 02:30N 35°34' E 140°07'0 0.0
2018-Apr-22 02:00N 35°34' E 140°07'0 0.0
2018-Apr-22 01:30N 35°34' E 140°07'0 0.0
2018-Apr-22 01:00N 35°34' E 140°07'0 0.0
2018-Apr-22 00:30N 35°34' E 140°07'0 0.0
2018-Apr-22 00:00N 35°34' E 140°07'0 0.0
2018-Apr-21 23:30N 35°34' E 140°07'0 0.0
2018-Apr-21 22:59N 35°34' E 140°07'1 1.2
2018-Apr-21 22:30N 35°35' E 140°07'3 6.0
2018-Apr-21 22:00N 35°35' E 140°03'2 3.7
2018-Apr-21 21:28N 35°35' E 140°00'0 0.0
2018-Apr-21 20:58N 35°35' E 140°00'0 0.0
2018-Apr-21 20:28N 35°35' E 140°00'0 0.0
2018-Apr-21 19:58N 35°35' E 140°00'0 0.2
2018-Apr-21 19:28N 35°35' E 140°00'2 4.1
2018-Apr-21 19:01N 35°34' E 139°59'611.7
2018-Apr-21 18:31N 35°30' E 139°53'612.1
2018-Apr-21 18:00N 35°26' E 139°48'510.6
2018-Apr-21 17:30N 35°21' E 139°45'611.1
2018-Apr-21 17:00N 35°16' E 139°47'612.1
2018-Apr-21 16:30N 35°09' E 139°46'612.1
2018-Apr-21 16:00N 35°04' E 139°45'611.3
2018-Apr-21 15:30N 34°60' E 139°40'612.9
2018-Apr-21 15:00N 34°57' E 139°33'713.8
2018-Apr-21 14:30N 34°53' E 139°26'713.8
2018-Apr-21 14:00N 34°49' E 139°19'713.8
2018-Apr-21 13:30N 34°44' E 139°13'713.8
2018-Apr-21 13:00N 34°39' E 139°07'713.3
2018-Apr-21 12:30N 34°35' E 139°01'612.5
2018-Apr-21 12:00N 34°32' E 138°54'913.2
2018-Apr-21 11:21N 34°32' E 138°44'513.0
2018-Apr-21 10:59N 34°31' E 138°38'712.9
2018-Apr-21 10:28N 34°31' E 138°30'612.7
2018-Apr-21 09:59N 34°31' E 138°23'612.5
2018-Apr-21 09:30N 34°31' E 138°15'3612.2
2018-Apr-21 06:34N 34°21' E 137°33'611.9
2018-Apr-21 06:05N 34°19' E 137°27'111.7
2018-Apr-21 05:58N 34°18' E 137°26'13110.9
2018-Apr-20 18:00N 33°24' E 135°02'612.1
2018-Apr-20 17:30N 33°23' E 134°55'612.2
2018-Apr-20 16:59N 33°21' E 134°48'24 0.8
2018-Apr-19 11:23N 33°44' E 134°45'912.5
2018-Apr-19 10:40N 33°51' E 134°52'212.3
2018-Apr-19 10:30N 33°53' E 134°53'712.3
2018-Apr-19 09:57N 33°60' E 134°54'512.5
2018-Apr-19 09:30N 34°05' E 134°56'714.0
2018-Apr-19 09:01N 34°12' E 134°58'714.6
2018-Apr-19 08:30N 34°19' E 134°59'612.9
2018-Apr-19 08:00N 34°25' E 135°01'612.9
2018-Apr-19 07:30N 34°32' E 135°02'611.9
2018-Apr-19 07:01N 34°37' E 134°59'816.7
2018-Apr-19 06:31N 34°33' E 134°50'714.5
2018-Apr-19 06:01N 34°30' E 134°42'714.1
2018-Apr-19 05:31N 34°28' E 134°34'713.8
2018-Apr-19 04:59N 34°25' E 134°26'613.4
2018-Apr-19 04:30N 34°24' E 134°18'713.6
2018-Apr-19 04:01N 34°25' E 134°10'713.1
2018-Apr-19 03:30N 34°26' E 134°02'64 4.0
2018-Apr-18 11:36N 34°05' E 132°48'313.0
2018-Apr-18 11:25N 34°03' E 132°47'513.7
2018-Apr-18 11:01N 33°58' E 132°44'712.9
2018-Apr-18 10:29N 33°54' E 132°37'612.7
2018-Apr-18 10:00N 33°49' E 132°32'612.2
2018-Apr-18 09:28N 33°45' E 132°27'612.2
2018-Apr-18 09:00N 33°41' E 132°22'612.0
2018-Apr-18 08:30N 33°36' E 132°17'611.7
2018-Apr-18 07:58N 33°32' E 132°12'611.6
2018-Apr-18 07:25N 33°28' E 132°07'511.0
2018-Apr-18 07:01N 33°24' E 132°03'7 9.7
2018-Apr-18 06:16N 33°18' E 131°59'711.3
2018-Apr-18 05:38N 33°11' E 131°58'2 0.3
2018-Apr-17 23:38N 33°09' E 131°56'213.2
2018-Apr-17 23:30N 33°11' E 131°57'612.4
2018-Apr-17 22:59N 33°17' E 131°60'511.2
2018-Apr-17 22:30N 33°22' E 132°01'912.0
2018-Apr-17 21:44N 33°29' E 132°09'513.1
2018-Apr-17 21:23N 33°32' E 132°13'513.5
2018-Apr-17 20:59N 33°36' E 132°17'713.8
2018-Apr-17 20:30N 33°41' E 132°23'814.2
2018-Apr-17 19:57N 33°47' E 132°29'614.6
2018-Apr-17 19:30N 33°52' E 132°34'815.2
2018-Apr-17 19:00N 33°57' E 132°41'1015.2
2018-Apr-17 18:21N 34°04' E 132°49'915.0
2018-Apr-17 17:46N 34°10' E 132°57'10 0.5
2018-Apr-16 22:32N 34°03' E 132°48'212.7
2018-Apr-16 22:21N 34°02' E 132°47'512.9
2018-Apr-16 22:00N 33°58' E 132°43'612.3
2018-Apr-16 21:28N 33°54' E 132°37'612.4
2018-Apr-16 21:00N 33°49' E 132°32'611.7
2018-Apr-16 20:28N 33°45' E 132°27'611.6
2018-Apr-16 19:56N 33°41' E 132°22'611.4
2018-Apr-16 19:26N 33°37' E 132°17'711.3
2018-Apr-16 18:51N 33°32' E 132°11'411.3
2018-Apr-16 18:28N 33°29' E 132°08'511.0
2018-Apr-16 18:00N 33°25' E 132°03'510.5
2018-Apr-16 17:30N 33°21' E 131°60'5 9.5
2018-Apr-16 16:58N 33°16' E 131°59'6 0.9
2018-Apr-16 10:45N 33°11' E 131°57'512.7
2018-Apr-16 10:23N 33°15' E 131°59'410.8
2018-Apr-16 10:00N 33°19' E 131°59'612.1
2018-Apr-16 09:29N 33°24' E 132°03'1012.2
2018-Apr-16 08:38N 33°32' E 132°11'512.9
2018-Apr-16 08:16N 33°35' E 132°15'513.1
2018-Apr-16 07:55N 33°39' E 132°19'613.6
2018-Apr-16 07:30N 33°43' E 132°24'814.4
2018-Apr-16 06:55N 33°49' E 132°31'614.7
2018-Apr-16 06:30N 33°53' E 132°36'815.7
2018-Apr-16 06:00N 33°58' E 132°43'1714.1
2018-Apr-16 04:49N 34°09' E 132°59'  

Dump ship's entire track history